Time;durP1;ratioP1;P1;durP2;ratioP2;P2;SDS_P1;SDS_P2;PMS_P1;PMS_P2;Temp;Humidity;BMP_temperature;BMP_pressure;BME280_temperature;BME280_humidity;BME280_pressure;Samples;Min_cycle;Max_cycle;Signal;HPM_P1;HPM_P2
2021/09/25 11:32:16;;;;;;;9.05;7.82;;;;;;;;;;6155373;23;20391;-48
2021/09/25 11:34:43;;;;;;;9.63;7.70;;;;;;;;;;6208784;23;20434;-48
2021/09/25 11:37:09;;;;;;;9.17;8.10;;;;;;;;;;6209685;23;20411;-47
2021/09/25 11:39:38;;;;;;;9.32;7.75;;;;;;;;;;6209008;23;20443;-50
2021/09/25 11:42:15;;;;;;;9.35;7.70;;;;;;;;;;6210516;23;20340;-47
2021/09/25 11:44:47;;;;;;;8.75;7.43;;;;;;;;;;6211450;23;20347;-47
2021/09/25 11:47:32;;;;;;;9.02;7.47;;;;;;;;;;6211288;23;20420;-47
2021/09/25 11:50:00;;;;;;;8.25;7.20;;;;;;;;;;6211370;23;20343;-48
2021/09/25 11:52:26;;;;;;;8.18;6.55;;;;;;;;;;6209514;23;20812;-47
2021/09/25 11:54:53;;;;;;;8.83;7.03;;;;;;;;;;6210989;23;20355;-47
2021/09/25 11:57:21;;;;;;;8.52;7.10;;;;;;;;;;6211323;23;20851;-50
2021/09/25 11:59:47;;;;;;;9.05;7.40;;;;;;;;;;6211319;23;20466;-48
2021/09/25 12:02:34;;;;;;;7.93;6.40;;;;;;;;;;6209950;23;20399;-47
2021/09/25 12:05:00;;;;;;;8.10;6.90;;;;;;;;;;6211149;23;20340;-49
2021/09/25 12:07:38;;;;;;;9.32;6.78;;;;;;;;;;6211169;23;20427;-48
2021/09/25 12:10:05;;;;;;;8.70;6.60;;;;;;;;;;6210992;23;20340;-48
2021/09/25 12:12:31;;;;;;;8.27;6.30;;;;;;;;;;6211126;23;20435;-48
2021/09/25 12:14:58;;;;;;;8.07;6.60;;;;;;;;;;6209119;23;20356;-46
2021/09/25 12:17:24;;;;;;;7.13;6.13;;;;;;;;;;6209453;23;20356;-48
2021/09/25 12:19:50;;;;;;;7.55;6.18;;;;;;;;;;6211448;23;20348;-47
2021/09/25 12:22:23;;;;;;;7.13;6.03;;;;;;;;;;6211217;23;20482;-47
2021/09/25 12:24:49;;;;;;;6.80;6.05;;;;;;;;;;6210595;23;20594;-46
2021/09/25 12:27:28;;;;;;;7.75;6.38;;;;;;;;;;6211035;23;20348;-46
2021/09/25 12:29:55;;;;;;;7.45;5.90;;;;;;;;;;6209235;23;20417;-46
2021/09/25 12:32:22;;;;;;;8.48;6.20;;;;;;;;;;6210029;23;20376;-49
2021/09/25 12:34:49;;;;;;;8.15;6.13;;;;;;;;;;6210749;23;20376;-46
2021/09/25 12:37:15;;;;;;;6.68;5.75;;;;;;;;;;6210462;23;20344;-48
2021/09/25 12:39:44;;;;;;;7.77;5.90;;;;;;;;;;6210974;23;20336;-46
2021/09/25 12:42:22;;;;;;;7.47;5.70;;;;;;;;;;6210615;23;20332;-45
2021/09/25 12:44:48;;;;;;;6.20;5.60;;;;;;;;;;6210761;23;20332;-46
2021/09/25 12:47:14;;;;;;;7.18;6.00;;;;;;;;;;6210641;23;20360;-45
2021/09/25 12:49:40;;;;;;;6.40;5.38;;;;;;;;;;6210444;23;20634;-46
2021/09/25 12:52:09;;;;;;;7.03;5.97;;;;;;;;;;6183930;23;20340;-45
2021/09/25 12:54:37;;;;;;;7.20;5.60;;;;;;;;;;6209999;23;20367;-45
2021/09/25 12:57:04;;;;;;;6.22;5.63;;;;;;;;;;6209805;23;20450;-45
2021/09/25 12:59:34;;;;;;;6.80;5.78;;;;;;;;;;6210671;23;20680;-54
2021/09/25 13:02:02;;;;;;;5.85;5.15;;;;;;;;;;6210210;23;20419;-46
2021/09/25 13:04:29;;;;;;;6.28;5.57;;;;;;;;;;6210223;23;20332;-50
2021/09/25 13:06:57;;;;;;;6.28;5.68;;;;;;;;;;6209795;23;20759;-47
2021/09/25 13:09:24;;;;;;;6.55;5.40;;;;;;;;;;6210444;23;20427;-46
2021/09/25 13:12:10;;;;;;;6.60;5.50;;;;;;;;;;6210466;23;20327;-47
2021/09/25 13:14:37;;;;;;;5.78;5.07;;;;;;;;;;6209840;23;20351;-49
2021/09/25 13:17:03;;;;;;;5.97;5.35;;;;;;;;;;6209780;23;20517;-50
2021/09/25 13:19:29;;;;;;;6.00;5.23;;;;;;;;;;6210192;23;20363;-47
2021/09/25 13:21:55;;;;;;;5.65;5.05;;;;;;;;;;6209757;23;20773;-47
2021/09/25 13:24:21;;;;;;;5.90;5.20;;;;;;;;;;6210501;23;20384;-46
2021/09/25 13:26:47;;;;;;;6.28;5.13;;;;;;;;;;6210600;23;20336;-47
